Time;durP1;ratioP1;P1;durP2;ratioP2;P2;SDS_P1;SDS_P2;PMS_P1;PMS_P2;Temp;Humidity;BMP_temperature;BMP_pressure;BME280_temperature;BME280_humidity;BME280_pressure;Samples;Min_cycle;Max_cycle;Signal;HPM_P1;HPM_P2
2023/09/23 00:02:15;;;;;;;2.23;1.93;;;16.90;99.90;;;;;;5026309;28;20205;-68
2023/09/23 00:04:42;;;;;;;1.87;1.77;;;16.90;99.90;;;;;;5026370;28;20209;-68
2023/09/23 00:07:09;;;;;;;1.90;1.80;;;16.80;99.90;;;;;;5026047;28;20320;-68
2023/09/23 00:09:37;;;;;;;2.97;2.00;;;16.80;99.90;;;;;;5026072;28;20211;-69
2023/09/23 00:12:06;;;;;;;2.10;2.00;;;16.90;99.90;;;;;;5025912;28;20216;-69
2023/09/23 00:14:33;;;;;;;2.33;2.10;;;16.80;99.90;;;;;;5025571;28;20259;-68
2023/09/23 00:17:03;;;;;;;1.97;1.87;;;16.80;99.90;;;;;;5025141;28;20803;-68
2023/09/23 00:19:34;;;;;;;2.00;1.90;;;16.80;99.90;;;;;;5025415;28;20642;-69
2023/09/23 00:22:02;;;;;;;2.10;1.80;;;16.80;99.90;;;;;;5014151;28;20216;-68
2023/09/23 00:24:29;;;;;;;3.47;1.77;;;16.70;99.90;;;;;;5005338;28;20939;-68
2023/09/23 00:26:59;;;;;;;1.90;1.80;;;16.80;99.90;;;;;;5019048;28;20300;-68
2023/09/23 00:29:27;;;;;;;2.13;1.70;;;16.70;99.90;;;;;;5025621;28;20200;-68
2023/09/23 00:31:55;;;;;;;2.10;2.00;;;16.70;99.90;;;;;;5025964;28;20204;-68
2023/09/23 00:34:23;;;;;;;2.03;1.93;;;16.70;99.90;;;;;;5025524;28;20211;-68
2023/09/23 00:36:52;;;;;;;1.93;1.80;;;16.80;99.90;;;;;;5025817;28;20228;-68
2023/09/23 00:39:19;;;;;;;1.90;1.80;;;16.70;99.90;;;;;;5025793;28;20235;-69
2023/09/23 00:41:46;;;;;;;2.10;1.87;;;16.80;99.90;;;;;;5025574;28;20287;-68
2023/09/23 00:44:13;;;;;;;3.53;1.93;;;16.80;99.90;;;;;;5025212;28;20251;-68
2023/09/23 00:46:42;;;;;;;2.10;1.90;;;16.80;99.90;;;;;;5025074;28;20315;-68
2023/09/23 00:49:09;;;;;;;2.03;1.90;;;16.70;99.90;;;;;;5011935;28;20399;-68
2023/09/23 00:51:38;;;;;;;1.90;1.80;;;16.70;99.90;;;;;;5012702;28;20303;-68
2023/09/23 00:54:13;;;;;;;3.33;2.13;;;16.70;99.90;;;;;;5024747;28;20355;-68
2023/09/23 00:56:41;;;;;;;4.10;2.17;;;16.70;99.90;;;;;;5024865;28;20228;-68
2023/09/23 00:59:08;;;;;;;1.93;1.83;;;16.70;99.90;;;;;;5024802;28;20209;-68
2023/09/23 01:01:38;;;;;;;2.07;1.97;;;16.60;99.90;;;;;;5024723;28;20243;-68
2023/09/23 01:04:08;;;;;;;1.53;1.50;;;16.60;99.90;;;;;;5020205;28;20215;-68
2023/09/23 01:06:34;;;;;;;2.27;2.10;;;16.60;99.90;;;;;;5005258;28;20217;-68
2023/09/23 01:09:06;;;;;;;1.83;1.73;;;16.50;99.90;;;;;;5006062;28;20205;-69
2023/09/23 01:11:33;;;;;;;2.20;2.00;;;16.60;99.90;;;;;;5005595;28;20276;-68
2023/09/23 01:14:02;;;;;;;2.23;2.03;;;16.60;99.90;;;;;;5024181;28;20211;-70
2023/09/23 01:16:29;;;;;;;2.00;1.87;;;16.50;99.90;;;;;;5024917;28;20917;-69
2023/09/23 01:18:56;;;;;;;1.77;1.67;;;16.50;99.90;;;;;;5024680;28;20742;-69
2023/09/23 01:21:23;;;;;;;1.70;1.60;;;16.40;99.90;;;;;;5024134;28;20724;-69
2023/09/23 01:23:53;;;;;;;2.10;1.90;;;16.30;99.90;;;;;;5024335;28;20670;-69
2023/09/23 01:26:20;;;;;;;2.10;1.90;;;16.20;99.90;;;;;;5024723;28;20247;-69
2023/09/23 01:28:49;;;;;;;2.40;1.80;;;16.10;99.90;;;;;;5025016;28;20266;-68
2023/09/23 01:31:17;;;;;;;2.07;1.97;;;16.00;99.90;;;;;;5025039;28;20204;-68
2023/09/23 01:33:44;;;;;;;1.77;1.67;;;16.00;99.90;;;;;;5024881;28;20239;-69
2023/09/23 01:36:11;;;;;;;2.20;1.97;;;16.10;99.90;;;;;;5024207;28;20828;-68
2023/09/23 01:38:40;;;;;;;2.53;2.03;;;16.20;99.90;;;;;;5024441;28;20244;-68
2023/09/23 01:41:08;;;;;;;2.00;1.90;;;16.20;99.90;;;;;;5024508;28;20201;-68
2023/09/23 01:43:36;;;;;;;3.13;1.93;;;16.10;99.90;;;;;;5023930;28;20200;-68
2023/09/23 01:46:03;;;;;;;2.30;1.90;;;15.90;99.90;;;;;;5023901;28;20220;-68
2023/09/23 01:48:31;;;;;;;2.50;1.87;;;15.90;99.90;;;;;;5024142;28;20201;-68
2023/09/23 01:50:58;;;;;;;1.80;1.70;;;15.80;99.90;;;;;;5024459;28;20327;-68
2023/09/23 01:53:26;;;;;;;1.90;1.80;;;15.80;99.90;;;;;;5023563;28;20699;-67
2023/09/23 01:55:53;;;;;;;2.17;1.97;;;15.70;99.90;;;;;;5024281;28;20282;-68
2023/09/23 01:58:23;;;;;;;2.47;1.87;;;15.70;99.90;;;;;;5024846;28;20239;-68
2023/09/23 02:00:51;;;;;;;2.67;1.70;;;15.60;99.90;;;;;;5024290;28;20209;-68
2023/09/23 02:03:18;;;;;;;2.77;2.20;;;15.60;99.90;;;;;;5024337;28;20590;-68
2023/09/23 02:05:47;;;;;;;1.93;1.80;;;15.50;99.90;;;;;;5024977;28;20228;-68
2023/09/23 02:08:15;;;;;;;1.80;1.70;;;15.50;99.90;;;;;;5024879;28;20220;-68
2023/09/23 02:10:44;;;;;;;2.00;1.80;;;15.50;99.90;;;;;;5024413;28;20215;-68
2023/09/23 02:13:11;;;;;;;1.80;1.70;;;15.50;99.90;;;;;;5023685;28;20744;-68
2023/09/23 02:15:39;;;;;;;2.10;1.93;;;15.50;99.90;;;;;;5023590;28;20222;-68
2023/09/23 02:18:07;;;;;;;2.50;1.73;;;15.50;99.90;;;;;;5027353;28;20209;-68
2023/09/23 02:20:34;;;;;;;2.00;1.90;;;15.40;99.90;;;;;;5027817;28;20212;-68
2023/09/23 02:23:01;;;;;;;2.40;1.73;;;15.40;99.90;;;;;;5027373;28;20663;-68
2023/09/23 02:25:28;;;;;;;1.70;1.60;;;15.40;99.90;;;;;;5027857;28;20208;-68
2023/09/23 02:27:55;;;;;;;1.80;1.70;;;15.40;99.90;;;;;;5027553;28;20212;-68
2023/09/23 02:30:22;;;;;;;1.90;1.80;;;15.40;99.90;;;;;;5027729;28;20205;-68
2023/09/23 02:32:51;;;;;;;1.90;1.80;;;15.30;99.90;;;;;;5027405;28;20560;-68
2023/09/23 02:35:18;;;;;;;1.63;1.50;;;15.20;99.90;;;;;;5027345;28;20208;-68
2023/09/23 02:37:46;;;;;;;2.20;2.00;;;15.20;99.90;;;;;;5027749;28;20236;-68
2023/09/23 02:40:14;;;;;;;1.70;1.60;;;15.30;99.90;;;;;;5027621;28;20668;-69
2023/09/23 02:42:42;;;;;;;2.77;1.67;;;15.40;99.90;;;;;;5027412;28;20220;-69
2023/09/23 02:45:10;;;;;;;2.27;1.90;;;15.40;99.90;;;;;;5007777;28;20213;-69
2023/09/23 02:47:38;;;;;;;3.33;1.77;;;15.40;99.90;;;;;;5007723;28;20213;-68
2023/09/23 02:50:09;;;;;;;1.87;1.70;;;15.40;99.90;;;;;;5007438;28;20675;-69
2023/09/23 02:52:38;;;;;;;1.40;1.40;;;15.30;99.90;;;;;;5023354;28;20201;-70
2023/09/23 02:55:08;;;;;;;1.63;1.53;;;15.40;99.90;;;;;;5027186;28;20288;-70
2023/09/23 02:57:36;;;;;;;1.70;1.60;;;15.30;99.90;;;;;;5027355;28;20236;-69
2023/09/23 03:00:15;;;;;;;1.50;1.40;;;15.40;99.90;;;;;;5027166;28;20825;-69
2023/09/23 03:02:45;;;;;;;2.57;1.77;;;15.40;99.90;;;;;;5026821;28;20193;-69
2023/09/23 03:05:25;;;;;;;1.43;1.30;;;15.40;99.90;;;;;;5027214;28;20580;-68
2023/09/23 03:07:52;;;;;;;2.10;1.90;;;15.30;99.90;;;;;;5027016;28;20189;-69
2023/09/23 03:10:29;;;;;;;3.70;1.60;;;15.30;99.90;;;;;;5027137;28;20296;-69
2023/09/23 03:13:02;;;;;;;1.93;1.83;;;15.30;99.90;;;;;;5027362;28;20200;-69
2023/09/23 03:15:34;;;;;;;3.30;1.70;;;15.40;99.90;;;;;;5026669;28;20213;-69
2023/09/23 03:18:01;;;;;;;3.70;1.50;;;15.40;99.90;;;;;;5027062;28;20734;-69
2023/09/23 03:20:30;;;;;;;1.83;1.73;;;15.30;99.90;;;;;;5019694;28;20292;-69
2023/09/23 03:22:57;;;;;;;1.63;1.53;;;15.30;99.90;;;;;;5026059;28;20214;-69
2023/09/23 03:25:24;;;;;;;2.40;1.30;;;15.10;99.90;;;;;;5026733;28;20263;-69
2023/09/23 03:27:52;;;;;;;1.50;1.40;;;15.30;99.90;;;;;;5026529;28;20793;-69
2023/09/23 03:30:20;;;;;;;1.40;1.20;;;15.30;99.90;;;;;;5025838;28;20219;-69
2023/09/23 03:32:49;;;;;;;1.30;1.30;;;15.30;99.90;;;;;;5026431;28;20215;-69
2023/09/23 03:35:17;;;;;;;1.23;1.23;;;15.30;99.90;;;;;;5026600;28;20205;-69
2023/09/23 03:37:49;;;;;;;1.50;1.50;;;15.30;99.90;;;;;;5026122;28;20244;-67
2023/09/23 03:40:19;;;;;;;1.73;1.63;;;15.30;99.90;;;;;;5026878;28;20259;-67
2023/09/23 03:42:48;;;;;;;1.20;1.10;;;15.40;99.90;;;;;;5026609;28;20193;-67
2023/09/23 03:45:17;;;;;;;1.97;1.53;;;15.50;99.90;;;;;;5017302;28;20212;-68
2023/09/23 03:47:45;;;;;;;1.47;1.37;;;15.50;99.90;;;;;;5026552;28;20209;-67
2023/09/23 03:50:14;;;;;;;1.20;1.20;;;15.50;99.90;;;;;;5026162;28;20951;-67
2023/09/23 03:52:41;;;;;;;1.20;1.10;;;15.30;99.90;;;;;;5026113;28;20244;-67
2023/09/23 03:55:13;;;;;;;1.13;1.13;;;15.10;99.90;;;;;;5026313;28;20287;-68
2023/09/23 03:57:42;;;;;;;1.40;1.30;;;15.00;99.90;;;;;;5026647;28;20382;-67
2023/09/23 04:00:15;;;;;;;1.40;1.30;;;15.00;99.90;;;;;;5026314;28;20244;-67
2023/09/23 04:02:43;;;;;;;1.47;1.37;;;14.80;99.90;;;;;;5025820;28;20237;-67
2023/09/23 04:05:10;;;;;;;1.17;1.17;;;14.70;99.90;;;;;;5026123;28;20212;-67
2023/09/23 04:07:39;;;;;;;1.20;1.10;;;14.60;99.90;;;;;;5025446;28;20684;-67
2023/09/23 04:10:08;;;;;;;0.90;0.90;;;14.60;99.90;;;;;;5025055;28;20283;-67
2023/09/23 04:12:37;;;;;;;1.07;1.07;;;14.60;99.90;;;;;;5024101;28;20215;-68
2023/09/23 04:15:07;;;;;;;0.90;0.90;;;14.50;99.90;;;;;;5025846;28;20201;-67
2023/09/23 04:17:34;;;;;;;0.90;0.90;;;14.50;99.90;;;;;;5025110;28;20221;-67
2023/09/23 04:20:09;;;;;;;1.30;0.90;;;14.50;99.90;;;;;;5025729;28;20208;-69
2023/09/23 04:22:37;;;;;;;1.80;1.10;;;14.50;99.90;;;;;;5025570;28;20300;-69
2023/09/23 04:25:05;;;;;;;0.70;0.70;;;14.40;99.90;;;;;;5025863;28;20205;-69
2023/09/23 04:27:33;;;;;;;1.03;1.03;;;14.40;99.90;;;;;;5025690;28;20209;-69
2023/09/23 04:30:04;;;;;;;2.23;0.97;;;14.40;99.90;;;;;;5025821;28;20213;-68
2023/09/23 04:32:31;;;;;;;2.20;0.90;;;14.40;99.90;;;;;;5025005;28;20209;-69
2023/09/23 04:34:58;;;;;;;1.20;0.90;;;14.30;99.90;;;;;;5005828;28;20304;-69
2023/09/23 04:37:27;;;;;;;1.17;0.80;;;14.30;99.90;;;;;;5005506;28;20329;-69
2023/09/23 04:39:54;;;;;;;1.67;0.90;;;14.20;99.90;;;;;;5005209;28;20716;-69
2023/09/23 04:42:22;;;;;;;0.93;0.90;;;14.20;99.90;;;;;;5023105;28;20255;-68
2023/09/23 04:44:49;;;;;;;0.90;0.90;;;14.20;99.90;;;;;;5025297;28;20212;-68
2023/09/23 04:47:19;;;;;;;1.00;1.00;;;14.20;99.90;;;;;;5023656;28;20295;-69
2023/09/23 04:49:46;;;;;;;1.43;1.00;;;14.20;99.90;;;;;;5025292;28;20212;-69
2023/09/23 04:52:15;;;;;;;2.53;0.80;;;14.20;99.90;;;;;;5024795;28;20307;-68
2023/09/23 04:54:42;;;;;;;0.80;0.70;;;14.20;99.90;;;;;;5025076;28;20721;-68
2023/09/23 04:57:09;;;;;;;0.87;0.87;;;14.10;99.90;;;;;;5025583;28;20233;-69
2023/09/23 04:59:36;;;;;;;1.00;1.00;;;14.20;99.90;;;;;;5025114;28;20625;-68
2023/09/23 05:02:04;;;;;;;0.87;0.87;;;14.10;99.90;;;;;;5025080;28;20208;-68
2023/09/23 05:04:33;;;;;;;0.70;0.60;;;14.10;99.90;;;;;;5025042;28;20236;-69
2023/09/23 05:07:01;;;;;;;0.57;0.57;;;14.10;99.90;;;;;;5025182;28;20205;-69
2023/09/23 05:09:28;;;;;;;1.30;0.80;;;14.00;99.90;;;;;;5025148;28;20209;-69
2023/09/23 05:11:55;;;;;;;3.50;1.13;;;14.00;99.90;;;;;;5024578;28;20300;-69
2023/09/23 05:14:21;;;;;;;2.00;0.67;;;14.00;99.90;;;;;;5024819;28;20263;-68
2023/09/23 05:16:50;;;;;;;0.80;0.60;;;14.00;99.90;;;;;;5024374;28;20316;-69
2023/09/23 05:19:19;;;;;;;0.97;0.80;;;13.90;99.90;;;;;;5024861;28;20219;-68
2023/09/23 05:21:47;;;;;;;1.33;0.70;;;14.00;99.90;;;;;;5024277;28;20208;-69
2023/09/23 05:24:14;;;;;;;0.70;0.70;;;13.90;99.90;;;;;;5024848;28;20212;-69
2023/09/23 05:26:43;;;;;;;0.77;0.67;;;13.80;99.90;;;;;;5024183;28;20931;-69
2023/09/23 05:29:10;;;;;;;0.90;0.87;;;13.70;99.90;;;;;;5024567;28;20205;-69
2023/09/23 05:31:37;;;;;;;0.90;0.80;;;13.70;99.90;;;;;;5024332;28;20266;-69
2023/09/23 05:34:04;;;;;;;2.23;1.00;;;13.80;99.90;;;;;;5024370;28;20209;-68
2023/09/23 05:36:31;;;;;;;1.00;1.00;;;13.70;99.90;;;;;;5019935;28;20676;-68
2023/09/23 05:39:00;;;;;;;1.10;0.83;;;13.70;99.90;;;;;;5024915;28;20228;-69
2023/09/23 05:41:27;;;;;;;0.77;0.77;;;13.70;99.90;;;;;;5024156;28;20266;-69
2023/09/23 05:43:54;;;;;;;1.77;0.90;;;13.70;99.90;;;;;;5024217;28;20200;-69
2023/09/23 05:46:21;;;;;;;0.70;0.70;;;13.60;99.90;;;;;;5024293;28;20304;-68
2023/09/23 05:48:48;;;;;;;0.93;0.80;;;13.70;99.90;;;;;;5024315;28;20588;-68
2023/09/23 05:51:15;;;;;;;1.43;0.80;;;13.80;99.90;;;;;;5024793;28;20216;-68
2023/09/23 05:53:42;;;;;;;1.10;0.80;;;13.80;99.90;;;;;;5028192;28;20746;-68
2023/09/23 05:56:11;;;;;;;0.73;0.73;;;13.80;99.90;;;;;;5028381;28;20304;-69
2023/09/23 05:58:38;;;;;;;1.07;0.80;;;13.80;99.90;;;;;;5018733;28;20241;-69
2023/09/23 06:01:05;;;;;;;1.53;0.57;;;13.90;99.90;;;;;;5007103;28;20323;-69
2023/09/23 06:03:32;;;;;;;1.27;0.90;;;14.00;99.90;;;;;;5015355;28;20220;-69
2023/09/23 06:05:59;;;;;;;2.40;0.77;;;14.00;99.90;;;;;;5026951;28;20205;-69
2023/09/23 06:08:26;;;;;;;1.40;0.87;;;14.00;99.90;;;;;;5026549;28;20296;-69
2023/09/23 06:10:53;;;;;;;1.03;0.70;;;14.10;99.90;;;;;;5026625;28;20577;-69
2023/09/23 06:13:21;;;;;;;1.40;0.60;;;14.10;99.90;;;;;;5026423;28;20224;-68
2023/09/23 06:15:49;;;;;;;1.90;0.83;;;14.20;99.90;;;;;;5026531;28;20247;-69
2023/09/23 06:18:15;;;;;;;1.83;0.70;;;14.20;99.90;;;;;;5026310;28;20323;-69
2023/09/23 06:20:42;;;;;;;1.00;0.80;;;14.20;99.90;;;;;;5025945;28;20209;-69
2023/09/23 06:23:10;;;;;;;1.37;0.93;;;14.20;99.90;;;;;;5026279;28;20295;-69
2023/09/23 06:25:37;;;;;;;1.50;0.43;;;14.30;99.90;;;;;;5025923;28;20213;-69
2023/09/23 06:28:05;;;;;;;1.37;0.60;;;14.30;99.90;;;;;;5025885;28;20204;-69
2023/09/23 06:30:33;;;;;;;2.13;0.60;;;14.20;99.90;;;;;;5025690;28;20219;-69
2023/09/23 06:33:00;;;;;;;0.80;0.77;;;14.30;99.90;;;;;;5025773;28;20675;-69
2023/09/23 06:35:27;;;;;;;0.80;0.70;;;14.40;99.90;;;;;;5026150;28;20659;-69
2023/09/23 06:37:54;;;;;;;2.20;0.70;;;14.40;99.90;;;;;;5025703;28;20982;-69
2023/09/23 06:40:21;;;;;;;0.60;0.60;;;14.40;99.90;;;;;;5026047;28;20862;-69
2023/09/23 06:42:48;;;;;;;1.00;0.80;;;14.40;99.90;;;;;;5026181;28;20300;-69
2023/09/23 06:45:15;;;;;;;0.70;0.60;;;14.40;99.90;;;;;;5025918;28;20212;-69
2023/09/23 06:47:44;;;;;;;0.80;0.80;;;14.40;99.90;;;;;;5024825;28;20217;-69
2023/09/23 06:50:11;;;;;;;0.67;0.67;;;14.40;99.90;;;;;;5026176;28;20691;-69
2023/09/23 06:52:38;;;;;;;0.37;0.30;;;14.40;99.90;;;;;;5025753;28;20217;-69
2023/09/23 06:55:06;;;;;;;0.60;0.57;;;14.40;99.90;;;;;;5026028;28;20235;-69
2023/09/23 06:57:34;;;;;;;0.50;0.50;;;14.60;99.90;;;;;;5025427;28;20789;-69
2023/09/23 07:00:02;;;;;;;2.40;0.90;;;14.60;99.90;;;;;;5025036;28;20295;-69
2023/09/23 07:02:29;;;;;;;0.70;0.70;;;14.60;99.90;;;;;;5025460;28;20325;-69
2023/09/23 07:04:57;;;;;;;0.57;0.57;;;14.70;99.90;;;;;;5021736;28;20699;-68
2023/09/23 07:07:24;;;;;;;1.77;0.40;;;14.80;99.90;;;;;;5019118;28;20299;-69
2023/09/23 07:09:51;;;;;;;0.73;0.67;;;14.80;99.90;;;;;;5025580;28;20750;-69
2023/09/23 07:12:18;;;;;;;0.97;0.70;;;14.90;99.90;;;;;;5025481;28;20205;-69
2023/09/23 07:14:45;;;;;;;0.40;0.40;;;14.90;99.90;;;;;;5025908;28;20211;-69
2023/09/23 07:17:12;;;;;;;1.93;0.73;;;14.90;99.90;;;;;;5025250;28;20677;-69
2023/09/23 07:19:39;;;;;;;2.83;0.80;;;14.90;99.90;;;;;;5024834;28;20675;-69
2023/09/23 07:22:07;;;;;;;1.60;0.60;;;15.00;99.90;;;;;;5018548;28;20222;-69
2023/09/23 07:24:35;;;;;;;1.10;0.90;;;15.10;99.90;;;;;;5020070;28;20201;-68
2023/09/23 07:27:02;;;;;;;2.77;0.80;;;15.10;99.90;;;;;;5005307;28;20209;-69
2023/09/23 07:29:33;;;;;;;2.70;0.87;;;15.20;99.90;;;;;;5011829;28;20289;-69
2023/09/23 07:31:59;;;;;;;2.07;1.20;;;15.20;99.90;;;;;;5025527;28;20207;-78
2023/09/23 07:34:26;;;;;;;3.00;0.97;;;15.30;99.90;;;;;;5024894;28;20205;-70
2023/09/23 07:36:53;;;;;;;0.70;0.70;;;15.20;99.90;;;;;;5015847;28;20209;-68
2023/09/23 07:39:22;;;;;;;0.70;0.70;;;15.30;99.90;;;;;;5025403;28;20268;-68
2023/09/23 07:41:48;;;;;;;0.60;0.60;;;15.30;99.90;;;;;;5026551;28;20292;-68
2023/09/23 07:44:15;;;;;;;0.60;0.60;;;15.30;99.90;;;;;;5026532;28;20209;-68
2023/09/23 07:46:43;;;;;;;0.80;0.80;;;15.30;99.90;;;;;;5026640;28;20215;-69
2023/09/23 07:49:10;;;;;;;0.70;0.67;;;15.40;99.90;;;;;;5026893;28;20589;-69
2023/09/23 07:51:37;;;;;;;0.73;0.73;;;15.50;99.90;;;;;;5026432;28;20640;-68
2023/09/23 07:54:04;;;;;;;0.80;0.80;;;15.40;99.90;;;;;;5026290;28;20240;-68
2023/09/23 07:56:32;;;;;;;0.80;0.80;;;15.40;99.90;;;;;;5026266;28;20299;-68
2023/09/23 07:58:59;;;;;;;0.80;0.70;;;15.40;99.90;;;;;;5026236;28;20965;-69
2023/09/23 08:01:26;;;;;;;0.83;0.83;;;15.50;99.90;;;;;;5026098;28;20212;-68
2023/09/23 08:03:53;;;;;;;1.60;0.80;;;15.40;99.90;;;;;;5026043;28;20311;-68
2023/09/23 08:06:20;;;;;;;1.00;0.77;;;15.40;99.90;;;;;;5025752;28;20200;-68
2023/09/23 08:08:47;;;;;;;0.87;0.83;;;15.50;99.90;;;;;;5026130;28;20244;-68
2023/09/23 08:11:14;;;;;;;0.80;0.80;;;15.60;99.90;;;;;;5026000;28;20219;-68
2023/09/23 08:13:42;;;;;;;1.30;0.80;;;15.60;99.90;;;;;;5025639;28;20236;-69
2023/09/23 08:16:09;;;;;;;1.00;0.90;;;15.80;99.90;;;;;;5025722;28;20236;-68
2023/09/23 08:18:36;;;;;;;1.13;0.70;;;15.90;99.90;;;;;;5025720;28;20239;-68
2023/09/23 08:21:03;;;;;;;0.70;0.60;;;16.10;99.90;;;;;;5025604;28;20327;-69
2023/09/23 08:23:30;;;;;;;0.70;0.70;;;16.10;99.90;;;;;;5025734;28;20304;-69
2023/09/23 08:25:57;;;;;;;0.80;0.80;;;15.90;99.90;;;;;;5025842;28;20292;-68
2023/09/23 08:28:24;;;;;;;1.43;1.00;;;15.90;99.90;;;;;;5025888;28;20216;-68
2023/09/23 08:30:53;;;;;;;0.80;0.80;;;16.00;99.90;;;;;;5025796;28;20291;-68
2023/09/23 08:33:20;;;;;;;2.13;1.00;;;16.10;99.90;;;;;;5025154;28;20209;-68
2023/09/23 08:35:48;;;;;;;0.93;0.93;;;16.30;99.90;;;;;;5025688;28;20561;-68
2023/09/23 08:38:16;;;;;;;0.70;0.70;;;16.40;99.90;;;;;;5025053;28;20746;-68
2023/09/23 08:40:45;;;;;;;0.90;0.83;;;16.40;99.90;;;;;;5025337;28;20272;-68
2023/09/23 08:43:12;;;;;;;0.87;0.87;;;16.50;99.90;;;;;;5025309;28;20236;-68
2023/09/23 08:45:44;;;;;;;1.73;0.90;;;16.40;99.90;;;;;;5024698;28;20299;-68
2023/09/23 08:48:13;;;;;;;1.00;0.73;;;16.20;99.90;;;;;;5025409;28;20197;-68
2023/09/23 08:50:43;;;;;;;0.83;0.83;;;16.30;99.90;;;;;;5025240;28;20331;-68
2023/09/23 08:53:11;;;;;;;1.37;0.90;;;16.40;99.90;;;;;;5024587;28;20243;-68
2023/09/23 08:55:39;;;;;;;1.10;1.00;;;16.50;99.90;;;;;;5024934;28;20296;-69
2023/09/23 08:58:06;;;;;;;1.10;0.90;;;16.60;99.90;;;;;;5025303;28;20237;-69
2023/09/23 09:00:33;;;;;;;1.13;0.73;;;16.80;99.90;;;;;;5024843;28;20661;-68
2023/09/23 09:03:01;;;;;;;0.80;0.80;;;16.80;99.90;;;;;;5025470;28;20805;-68
2023/09/23 09:05:38;;;;;;;9.73;1.10;;;17.00;99.90;;;;;;5024862;28;20789;-68
2023/09/23 09:08:06;;;;;;;2.00;1.00;;;17.20;99.90;;;;;;5025228;28;20197;-69
2023/09/23 09:10:33;;;;;;;3.63;0.87;;;17.10;99.90;;;;;;5024931;28;20216;-68
2023/09/23 09:13:02;;;;;;;1.00;0.97;;;17.10;99.90;;;;;;5025627;28;20227;-69
2023/09/23 09:15:30;;;;;;;0.80;0.80;;;17.00;99.90;;;;;;5024504;28;20216;-68
2023/09/23 09:17:59;;;;;;;1.33;1.30;;;16.80;99.90;;;;;;5024528;28;20256;-68
2023/09/23 09:20:26;;;;;;;2.93;0.97;;;16.90;99.90;;;;;;5024970;28;20586;-68
2023/09/23 09:22:55;;;;;;;1.30;1.20;;;16.90;99.90;;;;;;5018655;28;20247;-68
2023/09/23 09:25:22;;;;;;;1.10;1.03;;;16.80;99.90;;;;;;5024448;28;20674;-69
2023/09/23 09:27:50;;;;;;;3.73;1.30;;;16.70;99.90;;;;;;5024213;28;20306;-68
2023/09/23 09:30:19;;;;;;;1.10;1.10;;;16.60;99.90;;;;;;5024380;28;20212;-69
2023/09/23 09:32:46;;;;;;;1.23;1.20;;;16.70;99.90;;;;;;5024737;28;20223;-68
2023/09/23 09:35:14;;;;;;;1.77;1.20;;;16.70;99.90;;;;;;5024833;28;20291;-68
2023/09/23 09:37:44;;;;;;;1.07;1.03;;;16.80;99.90;;;;;;5024410;28;20319;-69
2023/09/23 09:40:16;;;;;;;1.60;1.50;;;16.80;99.90;;;;;;5024646;28;20216;-69
2023/09/23 09:42:49;;;;;;;1.47;1.37;;;16.80;99.90;;;;;;5025315;28;20201;-69
2023/09/23 09:45:19;;;;;;;1.60;1.50;;;16.70;99.90;;;;;;5024974;28;20193;-69
2023/09/23 09:47:48;;;;;;;2.00;1.77;;;16.60;99.90;;;;;;5024428;28;20741;-68
2023/09/23 09:50:17;;;;;;;1.87;1.60;;;16.50;99.90;;;;;;5024402;28;20301;-68
2023/09/23 09:52:45;;;;;;;1.80;1.70;;;16.50;99.90;;;;;;5007261;28;20283;-69
2023/09/23 09:55:17;;;;;;;1.60;1.50;;;16.70;99.90;;;;;;5004676;28;20275;-68
2023/09/23 09:57:44;;;;;;;1.60;1.50;;;16.60;99.90;;;;;;5004765;28;20201;-69
2023/09/23 10:00:24;;;;;;;1.67;1.57;;;16.70;99.90;;;;;;5016028;28;20247;-68
2023/09/23 10:02:57;;;;;;;2.13;1.90;;;16.70;99.90;;;;;;5024274;28;20609;-69
2023/09/23 10:05:32;;;;;;;1.83;1.73;;;16.70;99.90;;;;;;5024234;28;20326;-69
2023/09/23 10:07:59;;;;;;;1.50;1.50;;;16.70;99.90;;;;;;5023992;28;20208;-68
2023/09/23 10:10:33;;;;;;;1.43;1.37;;;16.80;99.90;;;;;;5023706;28;20649;-69
2023/09/23 10:13:08;;;;;;;1.63;1.53;;;16.90;99.90;;;;;;5024420;28;20656;-68
2023/09/23 10:15:37;;;;;;;1.17;1.17;;;16.60;99.90;;;;;;5024085;28;20193;-68
2023/09/23 10:18:10;;;;;;;1.27;1.27;;;16.50;99.90;;;;;;5023887;28;20668;-68
2023/09/23 10:20:41;;;;;;;1.33;1.23;;;16.60;99.90;;;;;;5024015;28;20288;-69
2023/09/23 10:23:09;;;;;;;1.30;1.20;;;16.70;99.90;;;;;;5004243;28;20252;-69
2023/09/23 10:25:42;;;;;;;1.53;1.43;;;16.60;99.90;;;;;;5003778;28;20300;-69
2023/09/23 10:28:20;;;;;;;1.30;1.20;;;16.70;99.90;;;;;;5004334;28;20194;-68
2023/09/23 10:30:57;;;;;;;1.37;1.37;;;16.90;99.90;;;;;;5004315;28;20198;-69
2023/09/23 10:33:25;;;;;;;1.40;1.30;;;16.90;99.90;;;;;;5004438;28;20307;-68
2023/09/23 10:35:51;;;;;;;1.57;1.47;;;16.80;99.90;;;;;;5021697;28;20205;-69
2023/09/23 10:38:21;;;;;;;1.57;1.30;;;16.70;99.90;;;;;;5026036;28;20315;-69
2023/09/23 10:40:52;;;;;;;2.00;1.70;;;16.60;99.90;;;;;;5028100;28;20697;-68
2023/09/23 10:43:20;;;;;;;1.50;1.40;;;16.70;99.90;;;;;;5028090;28;20196;-68
2023/09/23 10:45:48;;;;;;;1.33;1.33;;;16.80;99.90;;;;;;5027740;28;20209;-69
2023/09/23 10:48:16;;;;;;;1.20;1.20;;;16.90;99.90;;;;;;5027661;28;20309;-69
2023/09/23 10:50:44;;;;;;;1.47;1.40;;;16.90;99.90;;;;;;5026936;28;20299;-68
2023/09/23 10:53:12;;;;;;;1.60;1.20;;;17.10;99.90;;;;;;5027074;28;20236;-69
2023/09/23 10:55:39;;;;;;;1.80;1.47;;;17.50;99.90;;;;;;5027575;28;20225;-69
2023/09/23 10:58:08;;;;;;;1.40;1.30;;;17.70;99.90;;;;;;5027584;28;20217;-69
2023/09/23 11:00:36;;;;;;;1.63;1.40;;;18.00;99.90;;;;;;5026758;28;20764;-69
2023/09/23 11:03:07;;;;;;;2.33;1.27;;;18.30;99.90;;;;;;5027539;28;20212;-69
2023/09/23 11:05:37;;;;;;;1.40;1.03;;;18.10;99.90;;;;;;5026729;28;21146;-69
2023/09/23 11:08:07;;;;;;;0.80;0.80;;;18.10;99.90;;;;;;5013037;28;20221;-69
2023/09/23 11:10:38;;;;;;;0.90;0.90;;;18.00;99.90;;;;;;5007262;28;20584;-69
2023/09/23 11:13:05;;;;;;;1.10;1.10;;;18.00;99.90;;;;;;5007283;28;20750;-69
2023/09/23 11:15:33;;;;;;;1.07;1.07;;;17.80;99.90;;;;;;5019916;28;20236;-69
2023/09/23 11:18:00;;;;;;;0.97;0.97;;;17.60;99.90;;;;;;5026689;28;20690;-69
2023/09/23 11:20:31;;;;;;;1.27;1.10;;;17.70;99.90;;;;;;5026720;28;20268;-68
2023/09/23 11:23:00;;;;;;;1.00;1.00;;;17.90;99.90;;;;;;5026690;28;20274;-69
2023/09/23 11:25:27;;;;;;;1.00;1.00;;;18.20;99.90;;;;;;5026597;28;20279;-69
2023/09/23 11:27:58;;;;;;;0.90;0.90;;;18.30;99.90;;;;;;5026495;28;20208;-69
2023/09/23 11:30:25;;;;;;;1.07;1.07;;;18.60;99.90;;;;;;5026159;28;20201;-69
2023/09/23 11:32:55;;;;;;;1.07;0.80;;;18.80;99.90;;;;;;5026298;28;20209;-69
2023/09/23 11:35:23;;;;;;;0.90;0.90;;;18.80;99.90;;;;;;5025838;28;20193;-69
2023/09/23 11:37:50;;;;;;;1.00;0.77;;;18.80;99.90;;;;;;5026780;28;20225;-69
2023/09/23 11:40:18;;;;;;;0.77;0.77;;;18.50;99.90;;;;;;5026692;28;20319;-69
2023/09/23 11:42:45;;;;;;;1.63;0.80;;;18.30;99.90;;;;;;5026221;28;20240;-69
2023/09/23 11:45:12;;;;;;;1.70;1.00;;;18.00;99.90;;;;;;5026476;28;20237;-69
2023/09/23 11:47:40;;;;;;;0.97;0.90;;;17.80;99.90;;;;;;5026503;28;20306;-69
2023/09/23 11:50:09;;;;;;;0.80;0.80;;;17.80;99.90;;;;;;5025352;28;20197;-68
2023/09/23 11:52:36;;;;;;;2.17;0.80;;;18.00;99.90;;;;;;5021056;28;20629;-69
2023/09/23 11:55:04;;;;;;;0.57;0.57;;;18.00;99.90;;;;;;5026136;28;20759;-69
2023/09/23 11:57:31;;;;;;;1.13;0.70;;;18.10;99.90;;;;;;5026176;28;20287;-68
2023/09/23 11:59:58;;;;;;;0.63;0.63;;;17.90;99.90;;;;;;5026371;28;20599;-69
2023/09/23 12:02:25;;;;;;;1.60;0.60;;;17.80;99.90;;;;;;5024007;28;20697;-69
2023/09/23 12:04:52;;;;;;;0.80;0.80;;;17.80;99.90;;;;;;5025012;28;20724;-69
2023/09/23 12:07:21;;;;;;;1.27;0.70;;;17.90;99.90;;;;;;5025743;28;20201;-68
2023/09/23 12:09:49;;;;;;;1.43;0.50;;;18.30;99.90;;;;;;5026359;28;20216;-68
2023/09/23 12:12:16;;;;;;;0.73;0.70;;;18.60;99.90;;;;;;5026012;28;20663;-69
2023/09/23 12:14:43;;;;;;;0.70;0.70;;;18.80;99.90;;;;;;5025956;28;20258;-68
2023/09/23 12:17:14;;;;;;;0.77;0.60;;;18.60;99.90;;;;;;5026170;28;20208;-68
2023/09/23 12:19:44;;;;;;;0.90;0.90;;;18.60;99.90;;;;;;5025648;28;20278;-68
2023/09/23 12:22:12;;;;;;;0.80;0.80;;;18.50;99.90;;;;;;5026240;28;20296;-69
2023/09/23 12:24:40;;;;;;;0.50;0.50;;;18.30;99.90;;;;;;5025590;28;20212;-69
2023/09/23 12:27:07;;;;;;;0.60;0.60;;;18.10;99.90;;;;;;5025788;28;20699;-69
2023/09/23 12:29:34;;;;;;;0.73;0.73;;;17.90;99.90;;;;;;5025633;28;20662;-69
2023/09/23 12:32:01;;;;;;;1.70;0.57;;;17.70;99.90;;;;;;5025665;28;20292;-69
2023/09/23 12:34:28;;;;;;;0.60;0.60;;;17.60;99.90;;;;;;5025840;28;20209;-69
2023/09/23 12:36:55;;;;;;;0.67;0.63;;;17.60;99.90;;;;;;5025774;28;20304;-70
2023/09/23 12:39:22;;;;;;;0.87;0.77;;;17.50;99.90;;;;;;5025649;28;20771;-69
2023/09/23 12:41:51;;;;;;;0.57;0.43;;;17.60;99.90;;;;;;5025957;28;20216;-69
2023/09/23 12:44:18;;;;;;;2.10;0.90;;;17.70;99.90;;;;;;5025380;28;20215;-68
2023/09/23 12:46:46;;;;;;;1.13;0.50;;;17.90;99.90;;;;;;5025835;28;20299;-68
2023/09/23 12:49:13;;;;;;;0.80;0.80;;;18.00;99.90;;;;;;5025320;28;20216;-68
2023/09/23 12:51:41;;;;;;;1.47;0.70;;;18.30;99.90;;;;;;5013328;28;20300;-69
2023/09/23 12:54:08;;;;;;;0.93;0.67;;;18.30;99.90;;;;;;5005581;28;20329;-69